Time;durP1;ratioP1;P1;durP2;ratioP2;P2;SDS_P1;SDS_P2;PMS_P1;PMS_P2;Temp;Humidity;BMP_temperature;BMP_pressure;BME280_temperature;BME280_humidity;BME280_pressure;Samples;Min_cycle;Max_cycle;Signal;HPM_P1;HPM_P2
2023/12/05 00:00:27;;;;;;;6.85;5.20;;;;;;;5.44;87.45;98936.34;5051257;28;20270;-55
2023/12/05 00:02:53;;;;;;;5.32;3.88;;;;;;;5.31;87.91;98914.59;5050923;28;20212;-55
2023/12/05 00:05:18;;;;;;;5.88;4.15;;;;;;;5.38;89.33;98928.03;5050979;28;20166;-55
2023/12/05 00:07:44;;;;;;;4.68;4.10;;;;;;;5.41;90.46;98927.91;5051157;28;20231;-55
2023/12/05 00:10:09;;;;;;;8.18;3.97;;;;;;;5.26;92.44;98915.69;5051120;28;20181;-55
2023/12/05 00:12:35;;;;;;;4.70;4.25;;;;;;;5.20;94.40;98903.94;5051190;28;20652;-55
2023/12/05 00:15:00;;;;;;;5.53;4.35;;;;;;;4.68;95.36;98814.56;5050929;28;20699;-55
2023/12/05 00:17:26;;;;;;;6.35;5.22;;;;;;;5.03;95.21;98879.84;5050981;28;20660;-55
2023/12/05 00:19:51;;;;;;;7.00;5.30;;;;;;;5.15;94.48;98880.22;5051210;28;20253;-55
2023/12/05 00:22:17;;;;;;;6.70;5.40;;;;;;;5.34;96.33;98917.06;5050700;28;20242;-55
2023/12/05 00:24:43;;;;;;;7.32;5.65;;;;;;;5.31;96.84;98936.88;5051123;28;20174;-55
2023/12/05 00:27:09;;;;;;;9.10;6.32;;;;;;;5.00;96.98;98901.31;5051163;28;20717;-55
2023/12/05 00:29:34;;;;;;;6.63;5.45;;;;;;;4.86;100.00;98888.19;5051018;28;20655;-55
2023/12/05 00:32:02;;;;;;;7.00;4.85;;;;;;;4.24;100.00;98848.69;5051009;28;20188;-55
2023/12/05 00:34:27;;;;;;;6.40;4.95;;;;;;;4.68;100.00;98880.34;5050998;28;20269;-55
2023/12/05 00:36:53;;;;;;;5.63;4.88;;;;;;;5.09;100.00;98918.94;5050959;28;20174;-55
2023/12/05 00:39:19;;;;;;;5.75;4.88;;;;;;;4.77;100.00;98856.94;5050647;28;20177;-55
2023/12/05 00:41:44;;;;;;;6.43;4.60;;;;;;;4.40;100.00;98839.56;5050742;28;20300;-55
2023/12/05 00:44:09;;;;;;;4.82;4.35;;;;;;;4.66;100.00;98903.47;5050868;28;20253;-55
2023/12/05 00:46:35;;;;;;;6.10;4.90;;;;;;;4.63;100.00;98902.75;5051623;28;20182;-55
2023/12/05 00:49:00;;;;;;;6.68;4.13;;;;;;;4.32;100.00;98850.97;5054609;28;20184;-55
2023/12/05 00:51:26;;;;;;;5.72;4.68;;;;;;;3.96;100.00;98845.44;5054300;28;20184;-55
2023/12/05 00:53:51;;;;;;;5.07;4.68;;;;;;;4.14;100.00;98892.63;5054190;28;20181;-55
2023/12/05 00:56:18;;;;;;;5.82;5.10;;;;;;;3.39;100.00;98813.38;5054255;28;20273;-54
2023/12/05 00:58:44;;;;;;;6.50;4.95;;;;;;;3.80;100.00;98810.22;5054360;28;20209;-55
2023/12/05 01:01:09;;;;;;;5.43;4.72;;;;;;;4.12;100.00;98823.53;5054014;28;20239;-55
2023/12/05 01:03:35;;;;;;;5.97;4.50;;;;;;;4.29;100.00;98813.50;5054377;28;20181;-55
2023/12/05 01:06:00;;;;;;;5.20;4.70;;;;;;;4.35;100.00;98818.41;5054298;28;20257;-55
2023/12/05 01:08:26;;;;;;;6.45;5.28;;;;;;;4.71;100.00;98863.13;5054060;28;20296;-55
2023/12/05 01:10:51;;;;;;;5.55;4.82;;;;;;;4.71;100.00;98900.72;5053911;28;20182;-55
2023/12/05 01:13:17;;;;;;;6.80;5.03;;;;;;;4.28;100.00;98878.44;5054156;28;20174;-55
2023/12/05 01:15:42;;;;;;;5.85;4.72;;;;;;;3.84;100.00;98796.44;5054119;28;20196;-55
2023/12/05 01:18:08;;;;;;;7.18;5.30;;;;;;;4.13;100.00;98830.31;5054071;28;20686;-54
2023/12/05 01:20:33;;;;;;;5.68;5.03;;;;;;;4.55;100.00;98859.47;5054020;28;20568;-55
2023/12/05 01:22:59;;;;;;;7.68;5.45;;;;;;;3.91;100.00;98777.41;5053855;28;20270;-55
2023/12/05 01:25:24;;;;;;;7.95;5.80;;;;;;;3.88;100.00;98768.09;5053896;28;20182;-55
2023/12/05 01:27:51;;;;;;;5.35;4.82;;;;;;;3.92;100.00;98767.09;5053946;28;20173;-55
2023/12/05 01:30:16;;;;;;;6.53;5.57;;;;;;;4.34;100.00;98850.03;5053852;28;20174;-55
2023/12/05 01:32:42;;;;;;;6.70;6.00;;;;;;;3.74;100.00;98807.88;5053903;28;20344;-55
2023/12/05 01:35:07;;;;;;;8.32;5.90;;;;;;;3.83;100.00;98804.97;5053517;28;20649;-55
2023/12/05 01:37:33;;;;;;;6.75;6.00;;;;;;;3.69;100.00;98744.09;5053754;28;20173;-55
2023/12/05 01:39:58;;;;;;;9.68;7.47;;;;;;;4.15;100.00;98843.88;5053595;28;20182;-55
2023/12/05 01:42:24;;;;;;;7.47;6.63;;;;;;;3.67;100.00;98742.47;5050993;28;20355;-55
2023/12/05 01:44:49;;;;;;;9.13;5.80;;;;;;;4.02;100.00;98786.34;5051111;28;20182;-55
2023/12/05 01:47:16;;;;;;;6.93;5.53;;;;;;;3.97;100.00;98742.16;5051122;28;20715;-54
2023/12/05 01:49:44;;;;;;;10.18;6.55;;;;;;;4.42;100.00;98791.66;5051118;28;20185;-55
2023/12/05 01:52:10;;;;;;;10.35;6.65;;;;;;;4.81;100.00;98838.84;5051048;28;20193;-55
2023/12/05 01:54:37;;;;;;;6.25;5.25;;;;;;;4.70;100.00;98820.47;5051040;28;20182;-55
2023/12/05 01:57:05;;;;;;;10.23;6.25;;;;;;;4.52;100.00;98793.00;5050814;28;20182;-54
2023/12/05 01:59:31;;;;;;;8.88;6.15;;;;;;;4.65;100.00;98801.88;5049943;28;20651;-55
2023/12/05 02:01:56;;;;;;;7.32;5.63;;;;;;;4.31;100.00;98737.44;5050770;28;20304;-55
2023/12/05 02:04:22;;;;;;;10.70;6.57;;;;;;;4.66;100.00;98795.84;5050735;28;20316;-55
2023/12/05 02:06:49;;;;;;;7.88;6.60;;;;;;;4.58;100.00;98800.44;5050757;28;20192;-55
2023/12/05 02:09:16;;;;;;;8.73;6.60;;;;;;;4.21;100.00;98776.28;5050821;28;20185;-54
2023/12/05 02:11:42;;;;;;;8.98;6.32;;;;;;;4.16;100.00;98809.75;5050756;28;20188;-55
2023/12/05 02:14:09;;;;;;;9.48;6.50;;;;;;;4.03;100.00;98775.22;5052333;28;20221;-55
2023/12/05 02:16:45;;;;;;;9.27;6.35;;;;;;;4.15;100.00;98771.38;5053002;28;20732;-55
2023/12/05 02:19:42;;;;;;;7.57;6.68;;;;;;;4.59;100.00;98814.91;5052562;28;20220;-55
2023/12/05 02:22:31;;;;;;;7.63;6.25;;;;;;;4.30;100.00;98761.38;5052748;28;20319;-55
2023/12/05 02:25:35;;;;;;;10.88;7.18;;;;;;;4.71;100.00;98813.59;5052908;28;20648;-55
2023/12/05 02:28:02;;;;;;;12.40;6.10;;;;;;;3.91;100.00;98706.56;5030609;28;20178;-55
2023/12/05 02:30:27;;;;;;;8.02;6.43;;;;;;;4.66;100.00;98816.34;5030316;28;20194;-55
2023/12/05 02:32:53;;;;;;;10.27;6.95;;;;;;;3.80;100.00;98718.91;5030296;28;20197;-55
2023/12/05 02:35:18;;;;;;;9.57;6.95;;;;;;;3.57;100.00;98752.16;5030293;28;20175;-55
2023/12/05 02:38:24;;;;;;;9.00;7.13;;;;;;;3.85;100.00;98805.78;5030204;28;20699;-55
2023/12/05 02:41:19;;;;;;;8.90;6.82;;;;;;;3.65;100.00;98800.50;5030141;28;20174;-55
2023/12/05 02:43:49;;;;;;;9.95;7.20;;;;;;;3.24;100.00;98771.25;5026543;28;20280;-55
2023/12/05 02:46:17;;;;;;;10.43;7.40;;;;;;;2.87;100.00;98706.88;5030029;28;20274;-55
2023/12/05 02:48:43;;;;;;;9.75;6.63;;;;;;;2.81;100.00;98684.09;5030035;28;20190;-55
2023/12/05 02:51:10;;;;;;;7.57;6.70;;;;;;;3.03;100.00;98759.16;5030018;28;20190;-55
2023/12/05 02:53:35;;;;;;;9.40;7.55;;;;;;;3.12;100.00;98797.22;5030037;28;20175;-55
2023/12/05 02:56:01;;;;;;;9.82;7.13;;;;;;;2.73;100.00;98688.63;5029862;28;20318;-55
2023/12/05 02:58:28;;;;;;;8.70;7.18;;;;;;;2.92;100.00;98730.56;5009911;28;20696;-55
2023/12/05 03:00:53;;;;;;;7.78;6.72;;;;;;;2.86;100.00;98694.19;5010105;28;20233;-55
2023/12/05 03:03:19;;;;;;;10.70;6.88;;;;;;;2.85;100.00;98695.03;5010039;28;20635;-55
2023/12/05 03:05:44;;;;;;;8.98;7.53;;;;;;;3.35;100.00;98771.72;5027600;28;20179;-55
2023/12/05 03:08:10;;;;;;;8.40;6.60;;;;;;;3.13;100.00;98688.13;5029630;28;20218;-54
2023/12/05 03:10:35;;;;;;;7.72;6.95;;;;;;;3.59;100.00;98723.97;5029520;28;20248;-55
2023/12/05 03:13:01;;;;;;;9.30;6.57;;;;;;;4.12;100.00;98780.00;5029594;28;20195;-55
2023/12/05 03:15:26;;;;;;;9.07;7.03;;;;;;;4.20;100.00;98775.44;5029674;28;20182;-56
2023/12/05 03:17:51;;;;;;;7.13;6.30;;;;;;;4.09;100.00;98762.19;5029397;28;20229;-56
2023/12/05 03:20:17;;;;;;;10.13;6.55;;;;;;;3.60;100.00;98698.34;5029573;28;20178;-56
2023/12/05 03:22:42;;;;;;;7.88;7.03;;;;;;;3.91;100.00;98721.09;5029464;28;20214;-56
2023/12/05 03:25:08;;;;;;;14.70;7.22;;;;;;;3.53;100.00;98673.88;5029494;28;20214;-57
2023/12/05 03:27:34;;;;;;;11.02;7.25;;;;;;;3.72;100.00;98713.25;5029506;28;20649;-54
2023/12/05 03:30:00;;;;;;;11.82;7.78;;;;;;;3.66;100.00;98674.25;5045658;28;20189;-56
2023/12/05 03:32:25;;;;;;;9.35;7.47;;;;;;;3.84;100.00;98676.97;5051653;28;20178;-56
2023/12/05 03:34:51;;;;;;;10.60;7.75;;;;;;;3.62;100.00;98673.53;5051445;28;20175;-56
2023/12/05 03:37:17;;;;;;;9.63;6.72;;;;;;;3.69;100.00;98674.16;5051583;28;20188;-54
2023/12/05 03:39:42;;;;;;;10.10;7.72;;;;;;;4.45;100.00;98777.91;5051608;28;20181;-55
2023/12/05 03:42:08;;;;;;;11.13;7.63;;;;;;;4.00;100.00;98687.47;5051484;28;20205;-55
2023/12/05 03:44:33;;;;;;;10.07;7.07;;;;;;;4.56;100.00;98768.91;5051782;28;20759;-55
2023/12/05 03:46:59;;;;;;;9.27;7.47;;;;;;;4.60;100.00;98765.34;5051446;28;20553;-55
2023/12/05 03:49:24;;;;;;;9.75;7.10;;;;;;;4.48;100.00;98770.94;5051305;28;20185;-55
2023/12/05 03:51:50;;;;;;;11.90;6.57;;;;;;;4.11;100.00;98683.63;5051421;28;20675;-55
2023/12/05 03:54:15;;;;;;;8.25;6.45;;;;;;;4.78;100.00;98777.41;5051222;28;20550;-55
2023/12/05 03:56:41;;;;;;;8.25;6.38;;;;;;;4.23;100.00;98695.94;5051457;28;20273;-55
2023/12/05 03:59:06;;;;;;;8.98;6.70;;;;;;;4.17;100.00;98734.59;5051378;28;20173;-55
2023/12/05 04:01:32;;;;;;;10.90;6.43;;;;;;;4.40;100.00;98783.22;5051268;28;20327;-55
2023/12/05 04:03:57;;;;;;;9.85;7.38;;;;;;;3.72;100.00;98644.16;5051097;28;20166;-55
2023/12/05 04:06:24;;;;;;;10.52;7.25;;;;;;;3.94;100.00;98706.44;5051282;28;20210;-55
2023/12/05 04:08:50;;;;;;;8.57;6.88;;;;;;;3.98;100.00;98723.34;5050995;28;20616;-55
2023/12/05 04:11:16;;;;;;;12.13;7.45;;;;;;;4.03;100.00;98720.63;5051216;28;20599;-55
2023/12/05 04:13:42;;;;;;;10.93;7.68;;;;;;;4.45;100.00;98786.44;5050936;28;20173;-55
2023/12/05 04:16:08;;;;;;;9.93;7.45;;;;;;;3.53;100.00;98689.22;5051167;28;20640;-56
2023/12/05 04:18:34;;;;;;;12.80;7.65;;;;;;;4.02;100.00;98782.97;5050969;28;20225;-56
2023/12/05 04:20:59;;;;;;;9.02;7.30;;;;;;;4.18;100.00;98787.47;5050931;28;20170;-55
2023/12/05 04:23:25;;;;;;;12.98;7.25;;;;;;;4.04;100.00;98745.34;5055054;28;20224;-55
2023/12/05 04:25:50;;;;;;;12.02;7.50;;;;;;;3.81;100.00;98686.50;5055131;28;20675;-55
2023/12/05 04:28:16;;;;;;;10.85;7.88;;;;;;;3.95;100.00;98695.31;5055045;28;20178;-55
2023/12/05 04:30:41;;;;;;;13.30;7.32;;;;;;;4.05;100.00;98688.13;5054952;28;20260;-55
2023/12/05 04:33:07;;;;;;;10.93;6.88;;;;;;;4.72;100.00;98772.53;5054704;28;20182;-55
2023/12/05 04:35:32;;;;;;;10.90;7.47;;;;;;;4.65;100.00;98763.44;5054963;28;20170;-56
2023/12/05 04:37:58;;;;;;;10.55;6.57;;;;;;;4.36;100.00;98704.81;5054938;28;20658;-55
2023/12/05 04:40:23;;;;;;;9.02;6.95;;;;;;;4.82;100.00;98770.44;5054878;28;20664;-56
2023/12/05 04:42:49;;;;;;;9.75;7.25;;;;;;;4.51;100.00;98759.72;5054770;28;20206;-56
2023/12/05 04:45:16;;;;;;;10.30;7.63;;;;;;;4.21;100.00;98768.59;5054792;28;20216;-55
2023/12/05 04:47:41;;;;;;;9.77;6.55;;;;;;;3.66;100.00;98675.09;5054718;28;20239;-55
2023/12/05 04:50:08;;;;;;;7.95;7.18;;;;;;;3.87;100.00;98701.63;5054678;28;20186;-55
2023/12/05 04:52:34;;;;;;;8.40;7.50;;;;;;;3.98;100.00;98702.88;5054602;28;20208;-56
2023/12/05 04:54:59;;;;;;;9.70;7.45;;;;;;;4.48;100.00;98755.56;5054713;28;20526;-55
2023/12/05 04:57:25;;;;;;;16.15;9.55;;;;;;;4.59;100.00;98761.09;5054528;28;20200;-55
2023/12/05 04:59:50;;;;;;;15.25;8.93;;;;;;;4.63;100.00;98772.91;5054507;28;20563;-55
2023/12/05 05:02:16;;;;;;;12.10;8.50;;;;;;;4.47;100.00;98764.16;5031960;28;20227;-55
2023/12/05 05:04:41;;;;;;;12.70;9.40;;;;;;;4.66;100.00;98795.84;5032351;28;20221;-56
2023/12/05 05:07:07;;;;;;;11.02;8.73;;;;;;;4.57;100.00;98760.34;5032014;28;20260;-55
2023/12/05 05:09:33;;;;;;;10.55;8.48;;;;;;;4.66;100.00;98774.53;5031982;28;20182;-55
2023/12/05 05:11:59;;;;;;;10.95;7.90;;;;;;;4.68;100.00;98780.41;5031903;28;20252;-55
2023/12/05 05:14:24;;;;;;;11.20;7.90;;;;;;;4.40;100.00;98729.41;5031799;28;20178;-55
2023/12/05 05:16:50;;;;;;;10.45;8.48;;;;;;;4.29;100.00;98718.75;5031734;28;20205;-56
2023/12/05 05:19:15;;;;;;;11.48;8.95;;;;;;;4.18;100.00;98709.78;5031682;28;20190;-55
2023/12/05 05:21:40;;;;;;;12.75;8.27;;;;;;;4.46;100.00;98762.47;5031648;28;20226;-55
2023/12/05 05:24:06;;;;;;;12.52;8.50;;;;;;;4.09;100.00;98717.84;5031797;28;20621;-55
2023/12/05 05:26:32;;;;;;;10.52;8.18;;;;;;;4.66;100.00;98770.22;5031679;28;20183;-55
2023/12/05 05:28:57;;;;;;;13.35;9.32;;;;;;;4.16;100.00;98668.91;5031543;28;20754;-55
2023/12/05 05:31:22;;;;;;;11.40;8.43;;;;;;;4.27;100.00;98674.41;5031485;28;20225;-56
2023/12/05 05:33:48;;;;;;;13.45;8.73;;;;;;;4.47;100.00;98718.03;5046183;28;20188;-56
2023/12/05 05:36:14;;;;;;;15.27;8.40;;;;;;;4.09;100.00;98644.41;5053762;28;20178;-56
2023/12/05 05:38:39;;;;;;;12.38;9.43;;;;;;;4.62;100.00;98742.22;5053430;28;20676;-55
2023/12/05 05:41:06;;;;;;;12.52;8.90;;;;;;;4.50;100.00;98740.13;5053565;28;20663;-55
2023/12/05 05:43:31;;;;;;;13.25;9.95;;;;;;;4.50;100.00;98743.50;5053596;28;20268;-56
2023/12/05 05:45:57;;;;;;;13.50;9.20;;;;;;;4.11;100.00;98663.13;5053728;28;20279;-55
2023/12/05 05:48:22;;;;;;;10.82;8.63;;;;;;;4.49;100.00;98726.47;5053737;28;20178;-55
2023/12/05 05:50:48;;;;;;;13.63;9.23;;;;;;;4.36;100.00;98678.34;5053564;28;20256;-55
2023/12/05 05:53:14;;;;;;;15.48;9.45;;;;;;;4.11;100.00;98622.16;5053727;28;20170;-55
2023/12/05 05:55:39;;;;;;;13.07;9.50;;;;;;;4.69;100.00;98728.25;5053701;28;20640;-55
2023/12/05 05:58:05;;;;;;;12.73;9.02;;;;;;;4.17;100.00;98632.16;5053432;28;20554;-55
2023/12/05 06:00:30;;;;;;;12.82;9.55;;;;;;;4.57;100.00;98716.78;5053066;28;20185;-55
2023/12/05 06:02:57;;;;;;;20.58;13.05;;;;;;;4.51;100.00;98722.16;5052759;28;20205;-55
2023/12/05 06:05:24;;;;;;;20.20;13.73;;;;;;;4.38;100.00;98685.06;5052764;28;20242;-55
2023/12/05 06:07:50;;;;;;;16.23;11.05;;;;;;;4.55;100.00;98731.34;5053135;28;20187;-55
2023/12/05 06:10:16;;;;;;;24.70;12.05;;;;;;;4.07;100.00;98635.97;5053065;28;20651;-55
2023/12/05 06:12:42;;;;;;;17.75;10.90;;;;;;;4.54;100.00;98729.69;5053093;28;20174;-55
2023/12/05 06:15:07;;;;;;;17.27;10.75;;;;;;;4.17;100.00;98674.84;5053046;28;20192;-55
2023/12/05 06:17:33;;;;;;;17.98;9.68;;;;;;;4.28;100.00;98681.22;5052902;28;20216;-55
2023/12/05 06:19:59;;;;;;;16.17;9.90;;;;;;;4.49;100.00;98721.34;5052981;28;20178;-55
2023/12/05 06:22:24;;;;;;;22.70;10.65;;;;;;;4.09;100.00;98667.44;5052801;28;20225;-55
2023/12/05 06:24:50;;;;;;;15.82;10.93;;;;;;;3.91;100.00;98634.88;5052742;28;20243;-55
2023/12/05 06:27:16;;;;;;;15.50;10.63;;;;;;;4.52;100.00;98728.94;5052658;28;20180;-55
2023/12/05 06:29:41;;;;;;;14.60;11.20;;;;;;;4.10;100.00;98646.09;5052473;28;20213;-55
2023/12/05 06:32:06;;;;;;;30.85;14.55;;;;;;;4.47;100.00;98707.78;5053050;28;20200;-55
2023/12/05 06:34:32;;;;;;;16.90;12.23;;;;;;;4.53;100.00;98687.03;5052648;28;20174;-55
2023/12/05 06:36:58;;;;;;;22.17;13.68;;;;;;;4.11;100.00;98636.69;5052652;28;20223;-55
2023/12/05 06:39:25;;;;;;;22.98;13.90;;;;;;;4.23;100.00;98660.09;5052506;28;20189;-55
2023/12/05 06:41:50;;;;;;;20.83;13.82;;;;;;;4.72;100.00;98746.91;5051867;28;20225;-55
2023/12/05 06:44:16;;;;;;;21.60;12.82;;;;;;;4.45;100.00;98686.53;5051861;28;20221;-55
2023/12/05 06:46:41;;;;;;;22.52;13.82;;;;;;;4.56;100.00;98689.47;5052069;28;20706;-55
2023/12/05 06:49:07;;;;;;;22.80;13.57;;;;;;;4.78;100.00;98736.41;5052312;28;20236;-55
2023/12/05 06:51:32;;;;;;;22.30;15.15;;;;;;;5.05;100.00;98757.53;5049991;28;20253;-55
2023/12/05 06:53:58;;;;;;;22.95;14.45;;;;;;;4.88;100.00;98719.75;5043166;28;20596;-55
2023/12/05 06:56:23;;;;;;;26.75;15.82;;;;;;;4.85;100.00;98708.81;5052005;28;20220;-55
2023/12/05 06:58:49;;;;;;;21.73;14.63;;;;;;;5.23;100.00;98746.50;5051879;28;20232;-55
2023/12/05 07:01:14;;;;;;;24.55;15.65;;;;;;;4.69;100.00;98648.81;5051466;28;20216;-55
2023/12/05 07:03:40;;;;;;;29.80;18.02;;;;;;;4.87;100.00;98687.34;5051838;28;20182;-54
2023/12/05 07:06:06;;;;;;;28.48;16.65;;;;;;;5.07;100.00;98730.94;5051824;28;20170;-55
2023/12/05 07:08:31;;;;;;;26.58;15.43;;;;;;;5.13;100.00;98722.97;5051696;28;20173;-55
2023/12/05 07:10:57;;;;;;;29.08;16.58;;;;;;;5.02;100.00;98696.94;5051672;28;20178;-55
2023/12/05 07:13:22;;;;;;;32.47;17.10;;;;;;;4.82;100.00;98691.81;5051160;28;20189;-55
2023/12/05 07:15:48;;;;;;;25.30;16.10;;;;;;;5.32;100.00;98757.25;5051701;28;20235;-55
2023/12/05 07:18:13;;;;;;;27.85;16.85;;;;;;;5.29;100.00;98718.88;5051612;28;20271;-55
2023/12/05 07:20:39;;;;;;;29.67;19.13;;;;;;;5.53;100.00;98756.31;5051340;28;20181;-55
2023/12/05 07:23:05;;;;;;;28.33;17.67;;;;;;;5.55;100.00;98741.66;5051070;28;20316;-55
2023/12/05 07:25:31;;;;;;;21.60;14.13;;;;;;;5.15;100.00;98651.09;5051559;28;20260;-55
2023/12/05 07:27:56;;;;;;;26.35;15.25;;;;;;;5.83;100.00;98746.50;5048850;28;20193;-55
2023/12/05 07:30:22;;;;;;;24.95;14.05;;;;;;;5.32;100.00;98693.09;5048970;28;20269;-55
2023/12/05 07:32:47;;;;;;;33.63;16.65;;;;;;;5.41;100.00;98715.78;5048909;28;20247;-55
2023/12/05 07:35:13;;;;;;;26.23;16.38;;;;;;;5.08;100.00;98665.09;5048888;28;20182;-55
2023/12/05 07:37:38;;;;;;;31.35;15.98;;;;;;;5.07;100.00;98671.94;5048819;28;20659;-55
2023/12/05 07:40:07;;;;;;;28.58;16.17;;;;;;;5.54;100.00;98746.88;5048467;28;20235;-55
2023/12/05 07:42:32;;;;;;;29.58;17.60;;;;;;;5.39;100.00;98707.31;5048613;28;20291;-55
2023/12/05 07:44:58;;;;;;;23.77;15.90;;;;;;;5.52;100.00;98712.75;5047944;28;20190;-55
2023/12/05 07:47:24;;;;;;;26.35;16.45;;;;;;;5.28;100.00;98655.66;5048042;28;20182;-55
2023/12/05 07:49:50;;;;;;;28.10;15.45;;;;;;;5.49;100.00;98674.41;5048936;28;20205;-55
2023/12/05 07:52:16;;;;;;;27.40;16.05;;;;;;;5.75;100.00;98703.16;5048895;28;20197;-55
2023/12/05 07:54:41;;;;;;;30.13;15.70;;;;;;;5.98;100.00;98731.22;5028739;28;20198;-55
2023/12/05 07:57:07;;;;;;;24.92;15.45;;;;;;;5.63;100.00;98665.19;5028197;28;20186;-55
2023/12/05 07:59:32;;;;;;;26.98;16.52;;;;;;;5.84;100.00;98682.19;5043932;28;20185;-55
2023/12/05 08:01:58;;;;;;;28.77;18.13;;;;;;;5.95;100.00;98700.53;5048772;28;20322;-55
2023/12/05 08:04:24;;;;;;;22.67;13.75;;;;;;;5.94;100.00;98693.72;5048704;28;20228;-55
2023/12/05 08:06:49;;;;;;;23.45;15.55;;;;;;;6.04;100.00;98720.66;5048219;28;20601;-55
2023/12/05 08:09:15;;;;;;;22.92;14.60;;;;;;;5.65;100.00;98668.50;5048718;28;20660;-55
2023/12/05 08:11:40;;;;;;;30.67;16.02;;;;;;;5.39;100.00;98643.19;5048760;28;20697;-55
2023/12/05 08:14:06;;;;;;;27.20;18.05;;;;;;;5.98;100.00;98705.53;5048636;28;20190;-55
2023/12/05 08:16:31;;;;;;;27.80;16.48;;;;;;;5.46;100.00;98677.94;5048616;28;20174;-55
2023/12/05 08:18:57;;;;;;;22.52;14.07;;;;;;;5.60;100.00;98669.63;5048446;28;20286;-55
2023/12/05 08:21:22;;;;;;;24.02;14.88;;;;;;;5.86;100.00;98671.88;5048541;28;20303;-55
2023/12/05 08:23:48;;;;;;;27.55;14.98;;;;;;;6.04;100.00;98671.88;5048630;28;20605;-55
2023/12/05 08:26:13;;;;;;;27.50;15.02;;;;;;;6.05;100.00;98677.81;5050090;28;20189;-55
2023/12/05 08:28:39;;;;;;;26.52;15.50;;;;;;;5.93;100.00;98648.41;5050831;28;20189;-55
2023/12/05 08:31:06;;;;;;;25.13;15.40;;;;;;;6.22;100.00;98673.59;5051022;28;20178;-55
2023/12/05 08:33:32;;;;;;;32.85;16.77;;;;;;;5.37;100.00;98541.53;5050853;28;20182;-55
2023/12/05 08:35:57;;;;;;;26.88;17.45;;;;;;;5.68;100.00;98544.34;5050226;28;20188;-55
2023/12/05 08:38:23;;;;;;;31.17;17.50;;;;;;;6.35;100.00;98620.69;5047446;28;20251;-55
2023/12/05 08:40:48;;;;;;;35.78;19.55;;;;;;;6.33;100.00;98601.97;5047676;28;20187;-55
2023/12/05 08:43:14;;;;;;;31.77;17.95;;;;;;;7.03;100.00;98681.59;5047943;28;20220;-55
2023/12/05 08:45:39;;;;;;;28.30;16.63;;;;;;;7.02;100.00;98665.34;5047852;28;20193;-55
2023/12/05 08:48:05;;;;;;;32.53;16.35;;;;;;;7.15;100.00;98671.53;5046730;28;20205;-55
2023/12/05 08:50:30;;;;;;;25.27;16.38;;;;;;;6.98;100.00;98643.22;5048317;28;20674;-55
2023/12/05 08:52:56;;;;;;;24.55;14.13;;;;;;;7.18;100.00;98666.19;5048664;28;20347;-55
2023/12/05 08:55:21;;;;;;;24.88;14.65;;;;;;;7.22;100.00;98670.28;5048377;28;20581;-55
2023/12/05 08:57:47;;;;;;;27.83;14.63;;;;;;;7.07;100.00;98629.06;5048093;28;20216;-55
2023/12/05 09:00:13;;;;;;;21.75;13.35;;;;;;;6.92;98.65;98607.53;5048275;28;20178;-55
2023/12/05 09:02:38;;;;;;;24.27;14.45;;;;;;;6.69;99.84;98584.72;5048140;28;20326;-55
2023/12/05 09:05:04;;;;;;;23.40;14.88;;;;;;;7.17;100.00;98667.13;5048223;28;20195;-56
2023/12/05 09:07:30;;;;;;;30.25;17.00;;;;;;;7.17;100.00;98654.25;5048949;28;20182;-56
2023/12/05 09:09:56;;;;;;;23.15;14.43;;;;;;;7.03;98.97;98630.13;5053391;28;20217;-55
2023/12/05 09:12:22;;;;;;;26.65;15.30;;;;;;;7.27;100.00;98670.88;5054155;28;20224;-54
2023/12/05 09:14:48;;;;;;;23.63;14.80;;;;;;;6.81;100.00;98596.16;5054225;28;20177;-55
2023/12/05 09:17:14;;;;;;;24.50;14.90;;;;;;;7.14;100.00;98641.56;5053956;28;20236;-54
2023/12/05 09:19:40;;;;;;;23.23;14.13;;;;;;;6.84;99.55;98565.13;5054436;28;20176;-54
2023/12/05 09:22:05;;;;;;;21.23;14.07;;;;;;;6.74;100.00;98551.91;5053988;28;20288;-54
2023/12/05 09:24:31;;;;;;;20.13;13.63;;;;;;;6.84;99.37;98552.25;5053965;28;20174;-56
2023/12/05 09:26:56;;;;;;;21.30;13.50;;;;;;;7.44;99.30;98632.25;5054238;28;20228;-56
2023/12/05 09:29:22;;;;;;;22.63;14.18;;;;;;;7.46;97.94;98614.16;5053886;28;20170;-55
2023/12/05 09:31:47;;;;;;;22.42;13.40;;;;;;;7.21;98.51;98591.44;5053848;28;20264;-55
2023/12/05 09:34:14;;;;;;;22.30;14.23;;;;;;;7.14;98.36;98592.66;5051189;28;20190;-55
2023/12/05 09:36:39;;;;;;;20.52;13.52;;;;;;;7.07;98.05;98550.16;5051358;28;20293;-55
2023/12/05 09:39:05;;;;;;;21.35;13.77;;;;;;;6.90;97.81;98537.34;5051381;28;20209;-54
2023/12/05 09:41:41;;;;;;;19.10;13.07;;;;;;;6.96;98.69;98537.03;5051183;28;20209;-55
2023/12/05 09:44:08;;;;;;;21.98;12.13;;;;;;;7.19;99.45;98588.13;5051338;28;20220;-54
2023/12/05 09:46:36;;;;;;;15.88;10.63;;;;;;;6.92;100.00;98529.53;5051187;28;20186;-54
2023/12/05 09:49:06;;;;;;;19.20;12.10;;;;;;;7.09;100.00;98561.19;5051065;28;20178;-55
2023/12/05 09:51:33;;;;;;;17.67;12.00;;;;;;;7.40;100.00;98610.13;5051012;28;20200;-54
2023/12/05 09:54:00;;;;;;;16.83;11.93;;;;;;;7.02;100.00;98559.03;5051126;28;20186;-54
2023/12/05 09:56:26;;;;;;;16.98;12.57;;;;;;;7.17;100.00;98568.53;5050959;28;20536;-54
2023/12/05 09:58:53;;;;;;;51.63;30.10;;;;;;;7.15;100.00;98576.31;5050923;28;20312;-54
2023/12/05 10:01:19;;;;;;;41.50;22.23;;;;;;;6.98;100.00;98591.78;5050813;28;20302;-54
2023/12/05 10:03:53;;;;;;;25.33;15.27;;;;;;;7.03;100.00;98569.25;5050878;28;20743;-54
2023/12/05 10:06:20;;;;;;;20.42;13.27;;;;;;;7.19;100.00;98582.97;5052852;28;20200;-54
2023/12/05 10:08:48;;;;;;;50.95;27.67;;;;;;;6.74;100.00;98509.91;5053220;28;20750;-55
2023/12/05 10:11:14;;;;;;;26.58;16.33;;;;;;;6.79;100.00;98578.22;5053082;28;20185;-54
2023/12/05 10:13:40;;;;;;;20.30;13.52;;;;;;;6.49;100.00;98492.38;5053120;28;20553;-54
2023/12/05 10:16:06;;;;;;;28.90;17.30;;;;;;;6.13;100.00;98468.50;5052450;28;20182;-54
2023/12/05 10:18:33;;;;;;;45.05;25.40;;;;;;;5.53;100.00;98407.31;5051724;28;20190;-55
2023/12/05 10:20:59;;;;;;;34.33;19.45;;;;;;;6.18;100.00;98535.09;5047959;28;20660;-54
2023/12/05 10:23:24;;;;;;;29.77;17.50;;;;;;;5.92;100.00;98533.78;5041532;28;20189;-54
2023/12/05 10:25:51;;;;;;;36.33;22.13;;;;;;;5.48;100.00;98500.81;5032778;28;20233;-54
2023/12/05 10:28:17;;;;;;;35.92;19.17;;;;;;;5.19;100.00;98452.59;5032492;28;20206;-54
2023/12/05 10:30:43;;;;;;;54.58;28.70;;;;;;;5.54;100.00;98521.06;5032382;28;20217;-55
2023/12/05 10:33:21;;;;;;;50.13;24.77;;;;;;;5.65;100.00;98513.69;5032367;28;20182;-55
2023/12/05 10:35:47;;;;;;;49.58;25.85;;;;;;;5.39;100.00;98485.84;5032526;28;20265;-55
2023/12/05 10:38:17;;;;;;;39.17;23.00;;;;;;;5.71;100.00;98510.84;5032573;28;20206;-55
2023/12/05 10:40:54;;;;;;;26.58;16.73;;;;;;;5.74;100.00;98505.53;5032531;28;20232;-55
2023/12/05 10:43:21;;;;;;;25.20;15.32;;;;;;;5.49;100.00;98410.91;5042880;28;20692;-55
2023/12/05 10:45:47;;;;;;;27.67;15.75;;;;;;;6.22;100.00;98493.75;5051878;28;20232;-55
2023/12/05 10:48:16;;;;;;;21.92;16.45;;;;;;;5.86;100.00;98405.69;5051350;28;20185;-56
2023/12/05 10:50:44;;;;;;;24.73;16.10;;;;;;;6.34;100.00;98485.41;5051815;28;20296;-56
2023/12/05 10:53:09;;;;;;;21.02;14.68;;;;;;;6.16;100.00;98445.25;5048178;28;20592;-54
2023/12/05 10:55:35;;;;;;;25.08;14.18;;;;;;;6.64;100.00;98504.41;5051898;28;20245;-54
2023/12/05 10:58:02;;;;;;;21.58;14.63;;;;;;;6.36;100.00;98452.75;5052166;28;20181;-54
2023/12/05 11:00:30;;;;;;;23.92;15.13;;;;;;;6.09;100.00;98397.66;5051730;28;20170;-54
2023/12/05 11:02:57;;;;;;;18.85;13.50;;;;;;;6.67;100.00;98490.59;5050651;28;20205;-55
2023/12/05 11:05:23;;;;;;;21.73;13.88;;;;;;;6.27;100.00;98427.56;5029195;28;20565;-54
2023/12/05 11:07:50;;;;;;;22.38;14.63;;;;;;;5.77;100.00;98352.19;5026628;28;20187;-55
2023/12/05 11:10:16;;;;;;;23.38;15.02;;;;;;;5.93;100.00;98365.97;5029141;28;20727;-55
2023/12/05 11:12:48;;;;;;;22.38;14.85;;;;;;;6.03;100.00;98380.00;5029172;28;20183;-55
2023/12/05 11:15:18;;;;;;;33.10;19.92;;;;;;;6.18;100.00;98428.00;5027222;28;20286;-54
2023/12/05 11:17:53;;;;;;;29.15;20.02;;;;;;;6.07;100.00;98391.75;5029444;28;20230;-54
2023/12/05 11:20:40;;;;;;;22.17;13.57;;;;;;;6.49;100.00;98474.38;5029467;28;20193;-54